KAGS/AGS METAR and TAF weather

Enter ICAO airport designator
Station Type Date Time Source
KAGS METAR 2022/08/16 18:53 UTC NOAA

KAGS 161853Z 36008KT 10SM BKN019 27/22 A2991 RMK AO2 SLP128 T02670217 $


Station Type Date Time Source
KAGS Decoded METAR 2022/08/16 18:53 UTC NOAA

AUGUSTA BUSH FIELD, GA, United States (KAGS) 33-22N 081-58W 44M
Aug 16, 2022 - 02:53 PM EDT / 2022.08.16 1853 UTC
Wind: from the N (360 degrees) at 9 MPH (8 KT):0
Visibility: 10 mile(s):0
Sky conditions: mostly cloudy
Temperature: 80.1 F (26.7 C)
Dew Point: 71.1 F (21.7 C)
Relative Humidity: 74%
Pressure (altimeter): 29.91 in. Hg (1012 hPa)
ob: KAGS 161853Z 36008KT 10SM BKN019 27/22 A2991 RMK AO2 SLP128 T02670217
cycle: 19

Station Type Date Time Source
KAGS TAF 2022/08/16 18:33 UTC NOAA

TAF KAGS 161731Z 1618/1718 03007KT P6SM SCT025
FM170000 05004KT P6SM BKN080
FM170400 VRB04KT P6SM SCT025 BKN100
TEMPO 1704/1708 BKN025
FM171200 03006KT P6SM BKN060

Example: see airport list